createdAt,value
2019-05-19T00:01:35.660Z,6.70
2019-05-19T00:04:06.700Z,6.77
2019-05-19T00:06:37.768Z,6.63
2019-05-19T00:09:08.294Z,6.70
2019-05-19T00:11:38.728Z,6.53
2019-05-19T00:14:09.047Z,7.80
2019-05-19T00:16:39.219Z,8.00
2019-05-19T00:19:09.429Z,7.73
2019-05-19T00:21:39.579Z,6.77
2019-05-19T00:24:09.769Z,8.97
2019-05-19T00:26:40.139Z,7.97
2019-05-19T00:29:10.337Z,7.53
2019-05-19T00:31:40.451Z,6.63
2019-05-19T00:34:10.618Z,6.90
2019-05-19T00:36:40.837Z,6.90
2019-05-19T00:39:12.120Z,7.43
2019-05-19T00:41:42.328Z,6.43
2019-05-19T00:44:12.486Z,7.53
2019-05-19T00:46:42.648Z,6.60
2019-05-19T00:49:12.868Z,7.17
2019-05-19T00:51:43.297Z,7.73
2019-05-19T00:54:13.471Z,7.40
2019-05-19T00:56:44.331Z,7.67
2019-05-19T00:59:15.548Z,7.70
2019-05-19T01:01:45.720Z,7.17
2019-05-19T01:04:16.479Z,7.03
2019-05-19T01:06:46.840Z,7.40
2019-05-19T01:09:17.308Z,7.67
2019-05-19T01:11:47.537Z,7.60
2019-05-19T01:14:17.751Z,9.70
2019-05-19T01:16:47.954Z,7.40
2019-05-19T01:19:18.401Z,7.13
2019-05-19T01:21:48.929Z,7.07
2019-05-19T01:24:19.151Z,6.70
2019-05-19T01:26:49.332Z,6.67
2019-05-19T01:29:19.494Z,6.57
2019-05-19T01:31:49.724Z,6.97
2019-05-19T01:34:19.985Z,5.73
2019-05-19T01:36:50.159Z,6.30
2019-05-19T01:39:20.324Z,5.77
2019-05-19T01:41:50.491Z,8.90
2019-05-19T01:44:20.722Z,12.80
2019-05-19T01:46:50.944Z,6.47
2019-05-19T01:49:21.171Z,6.00
2019-05-19T01:51:51.489Z,6.93
2019-05-19T01:54:21.815Z,6.37
2019-05-19T01:56:52.241Z,6.87
2019-05-19T01:59:22.416Z,6.40
2019-05-19T02:01:52.517Z,8.20
2019-05-19T02:04:22.815Z,6.60
2019-05-19T02:06:53.556Z,6.33
2019-05-19T02:09:23.863Z,6.37
2019-05-19T02:11:54.086Z,6.50
2019-05-19T02:14:24.312Z,6.70
2019-05-19T02:16:54.530Z,5.97
2019-05-19T02:19:24.855Z,6.00
2019-05-19T02:21:55.178Z,6.93
2019-05-19T02:24:25.382Z,5.50
2019-05-19T02:26:55.621Z,6.03
2019-05-19T02:29:25.844Z,5.50
2019-05-19T02:31:56.066Z,5.33
2019-05-19T02:34:26.250Z,4.93
2019-05-19T02:36:56.510Z,5.47
2019-05-19T02:39:26.853Z,6.63
2019-05-19T02:41:59.044Z,16.03
2019-05-19T02:44:29.973Z,5.07
2019-05-19T02:47:01.120Z,5.63
2019-05-19T02:49:33.459Z,7.33
2019-05-19T02:52:05.549Z,5.77
2019-05-19T02:54:36.617Z,5.23
2019-05-19T02:57:07.539Z,5.67
2019-05-19T02:59:37.724Z,4.70
2019-05-19T03:02:10.996Z,5.50
2019-05-19T03:04:40.953Z,4.23
2019-05-19T03:07:10.985Z,4.60
2019-05-19T03:09:40.865Z,4.33
2019-05-19T03:12:10.892Z,3.70
2019-05-19T03:14:40.729Z,2.73
2019-05-19T03:17:10.675Z,3.20
2019-05-19T03:19:40.523Z,2.60
2019-05-19T03:22:10.369Z,6.40
2019-05-19T03:24:40.231Z,15.13
2019-05-19T03:27:10.228Z,6.40
2019-05-19T03:29:44.335Z,4.73
2019-05-19T03:32:39.033Z,5.80
2019-05-19T03:35:09.402Z,6.57
2019-05-19T03:37:39.706Z,4.10
2019-05-19T03:40:28.896Z,3.33
2019-05-19T03:42:58.965Z,4.10
2019-05-19T03:45:29.085Z,2.77
2019-05-19T03:47:59.353Z,3.93
2019-05-19T03:50:29.574Z,3.83
2019-05-19T03:52:59.903Z,4.57
2019-05-19T03:55:30.223Z,4.13
2019-05-19T03:58:00.383Z,3.47
2019-05-19T04:00:30.769Z,5.77
2019-05-19T04:03:01.098Z,5.03
2019-05-19T04:05:31.348Z,11.00
2019-05-19T04:08:02.189Z,3.60
2019-05-19T04:10:32.322Z,3.90
2019-05-19T04:13:02.495Z,3.60
2019-05-19T04:15:32.652Z,3.80
2019-05-19T04:18:02.939Z,4.97
2019-05-19T04:20:33.141Z,3.40
2019-05-19T04:23:03.384Z,2.77
2019-05-19T04:25:33.610Z,3.60
2019-05-19T04:28:04.853Z,3.70
2019-05-19T04:30:35.073Z,3.40
2019-05-19T04:33:05.281Z,2.80
2019-05-19T04:35:35.514Z,3.97
2019-05-19T04:38:06.776Z,3.97
2019-05-19T04:40:37.883Z,4.87
2019-05-19T04:43:08.114Z,3.77
2019-05-19T04:45:38.339Z,4.30
2019-05-19T04:48:09.693Z,5.30
2019-05-19T04:50:40.137Z,5.10
2019-05-19T04:53:10.456Z,4.20
2019-05-19T04:55:40.624Z,4.03
2019-05-19T04:58:10.867Z,3.70
2019-05-19T05:00:41.130Z,5.03
2019-05-19T05:03:12.741Z,4.40
2019-05-19T05:05:43.364Z,3.63
2019-05-19T05:08:29.041Z,6.10
2019-05-19T05:10:46.200Z,3.50
2019-05-19T05:13:16.355Z,9.07
2019-05-19T05:15:46.648Z,5.10
2019-05-19T05:18:17.077Z,4.97
2019-05-19T05:20:47.280Z,4.23
2019-05-19T05:23:17.515Z,4.10
2019-05-19T05:25:47.745Z,3.20
2019-05-19T05:28:18.168Z,19.87
2019-05-19T05:30:48.487Z,3.40
2019-05-19T05:33:18.667Z,3.27
2019-05-19T05:35:51.170Z,3.17
2019-05-19T05:38:21.345Z,4.03
2019-05-19T05:40:51.630Z,3.20
2019-05-19T05:43:24.762Z,3.07
2019-05-19T05:45:54.990Z,2.50
2019-05-19T05:48:25.373Z,2.60
2019-05-19T05:50:55.792Z,3.10
2019-05-19T05:53:26.099Z,2.80
2019-05-19T05:55:57.577Z,3.83
2019-05-19T05:58:27.728Z,3.20
2019-05-19T06:00:57.910Z,3.50
2019-05-19T06:03:28.337Z,4.77
2019-05-19T06:05:58.898Z,3.43
2019-05-19T06:08:29.682Z,3.70
2019-05-19T06:11:00.035Z,3.27
2019-05-19T06:13:30.453Z,3.27
2019-05-19T06:16:00.732Z,2.70
2019-05-19T06:18:30.998Z,3.83
2019-05-19T06:21:01.336Z,3.23
2019-05-19T06:23:31.482Z,3.10
2019-05-19T06:26:01.748Z,4.03
2019-05-19T06:28:32.007Z,2.87
2019-05-19T06:31:02.543Z,3.43
2019-05-19T06:33:32.742Z,5.33
2019-05-19T06:36:02.975Z,5.60
2019-05-19T06:38:34.218Z,5.90
2019-05-19T06:41:04.588Z,5.97
2019-05-19T06:43:34.860Z,4.33
2019-05-19T06:46:05.060Z,5.77
2019-05-19T06:48:35.405Z,2.70
2019-05-19T06:51:05.756Z,3.27
2019-05-19T06:53:36.051Z,3.07
2019-05-19T06:56:06.274Z,3.10
2019-05-19T06:58:36.512Z,3.30
2019-05-19T07:01:06.718Z,3.27
2019-05-19T07:03:38.481Z,4.60
2019-05-19T07:06:08.811Z,3.80
2019-05-19T07:08:39.153Z,4.47
2019-05-19T07:11:09.502Z,4.30
2019-05-19T07:13:40.012Z,4.67
2019-05-19T07:16:10.209Z,5.00
2019-05-19T07:18:41.468Z,10.83
2019-05-19T07:21:11.406Z,7.10
2019-05-19T07:23:41.291Z,10.57
2019-05-19T07:26:11.156Z,8.67
2019-05-19T07:28:41.106Z,7.47
2019-05-19T07:31:11.373Z,5.37
2019-05-19T07:33:41.296Z,5.40
2019-05-19T07:36:11.710Z,4.43
2019-05-19T07:38:42.627Z,3.97
2019-05-19T07:41:12.523Z,4.00
2019-05-19T07:43:42.523Z,7.03
2019-05-19T07:46:12.630Z,5.77
2019-05-19T07:48:42.584Z,7.23
2019-05-19T07:51:12.507Z,3.27
2019-05-19T07:53:43.367Z,3.87
2019-05-19T07:56:13.447Z,4.40
2019-05-19T07:58:43.372Z,4.77
2019-05-19T08:01:13.252Z,3.80
2019-05-19T08:03:43.276Z,6.07
2019-05-19T08:06:13.206Z,4.23
2019-05-19T08:08:43.228Z,3.03
2019-05-19T08:11:13.141Z,4.00
2019-05-19T08:13:43.132Z,3.90
2019-05-19T08:16:13.052Z,5.80
2019-05-19T08:18:43.059Z,5.77
2019-05-19T08:21:13.204Z,4.70
2019-05-19T08:23:58.670Z,3.43
2019-05-19T08:26:14.715Z,4.53
2019-05-19T08:28:44.715Z,13.50
2019-05-19T08:31:14.640Z,6.23
2019-05-19T08:33:44.567Z,4.63
2019-05-19T08:36:14.528Z,4.90
2019-05-19T08:38:44.762Z,3.60
2019-05-19T08:41:14.646Z,3.63
2019-05-19T08:43:44.543Z,22.57
2019-05-19T08:46:15.320Z,7.73
2019-05-19T08:48:45.255Z,16.27
2019-05-19T08:51:15.192Z,11.97
2019-05-19T08:53:45.052Z,7.70
2019-05-19T08:56:14.928Z,6.60
2019-05-19T08:58:44.898Z,5.07
2019-05-19T09:01:14.833Z,8.57
2019-05-19T09:03:44.781Z,4.70
2019-05-19T09:06:14.679Z,4.70
2019-05-19T09:08:44.706Z,5.37
2019-05-19T09:11:14.747Z,6.23
2019-05-19T09:13:44.639Z,5.80
2019-05-19T09:16:15.742Z,6.93
2019-05-19T09:18:45.888Z,5.47
2019-05-19T09:21:16.298Z,4.70
2019-05-19T09:23:46.617Z,5.40
2019-05-19T09:26:16.926Z,4.97
2019-05-19T09:28:47.437Z,5.67
2019-05-19T09:31:17.789Z,4.63
2019-05-19T09:33:48.002Z,5.27
2019-05-19T09:36:18.239Z,5.13
2019-05-19T09:38:48.756Z,12.33
2019-05-19T09:41:18.993Z,6.17
2019-05-19T09:43:49.180Z,6.20
2019-05-19T09:46:19.181Z,6.77
2019-05-19T09:48:51.564Z,6.57
2019-05-19T09:51:21.542Z,7.03
2019-05-19T09:53:52.256Z,6.50
2019-05-19T09:56:22.120Z,7.57
2019-05-19T09:58:52.044Z,7.07
2019-05-19T10:01:21.971Z,6.63
2019-05-19T10:03:51.932Z,8.10
2019-05-19T10:06:21.993Z,7.30
2019-05-19T10:09:02.968Z,7.10
2019-05-19T10:11:42.538Z,8.80
2019-05-19T10:14:12.533Z,8.10
2019-05-19T10:16:42.456Z,8.03
2019-05-19T10:19:12.467Z,8.00
2019-05-19T10:21:42.347Z,9.73
2019-05-19T10:24:12.248Z,9.23
2019-05-19T10:26:42.121Z,8.67
2019-05-19T10:29:12.100Z,8.77
2019-05-19T10:31:42.114Z,8.07
2019-05-19T10:34:12.021Z,8.83
2019-05-19T10:36:41.920Z,9.30
2019-05-19T10:39:12.044Z,10.63
2019-05-19T10:41:41.972Z,10.17
2019-05-19T10:44:11.991Z,11.47
2019-05-19T10:46:41.956Z,16.87
2019-05-19T10:49:11.972Z,41.77
2019-05-19T10:51:42.220Z,32.03
2019-05-19T10:54:12.624Z,20.53
2019-05-19T10:56:42.803Z,17.80
2019-05-19T10:59:13.276Z,12.13
2019-05-19T11:01:43.485Z,12.10
2019-05-19T11:04:13.847Z,10.20
2019-05-19T11:06:43.933Z,12.20
2019-05-19T11:09:14.436Z,11.57
2019-05-19T11:11:44.811Z,11.60
2019-05-19T11:14:14.939Z,10.33
2019-05-19T11:16:44.857Z,11.37
2019-05-19T11:19:14.780Z,11.43
2019-05-19T11:21:44.885Z,10.77
2019-05-19T11:24:14.899Z,10.73
2019-05-19T11:26:44.795Z,13.70
2019-05-19T11:29:14.812Z,10.67
2019-05-19T11:31:44.735Z,12.23
2019-05-19T11:34:14.745Z,10.40
2019-05-19T11:36:44.713Z,9.57
2019-05-19T11:39:14.686Z,14.87
2019-05-19T11:41:44.864Z,15.00
2019-05-19T11:44:14.786Z,15.97
2019-05-19T11:46:44.671Z,14.37
2019-05-19T11:49:14.736Z,13.37
2019-05-19T11:51:44.636Z,11.70
2019-05-19T11:54:14.824Z,11.73
2019-05-19T11:56:44.764Z,10.37
2019-05-19T11:59:14.713Z,11.60
2019-05-19T12:01:44.727Z,12.10
2019-05-19T12:04:14.669Z,14.63
2019-05-19T12:06:44.536Z,16.27
2019-05-19T12:09:14.527Z,16.50
2019-05-19T12:11:45.071Z,14.43
2019-05-19T12:14:15.099Z,11.73
2019-05-19T12:16:45.027Z,15.07
2019-05-19T12:19:14.982Z,10.70
2019-05-19T12:21:44.972Z,11.57
2019-05-19T12:24:14.988Z,10.03
2019-05-19T12:26:44.871Z,8.37
2019-05-19T12:29:14.893Z,9.93
2019-05-19T12:31:44.777Z,9.30
2019-05-19T12:34:14.817Z,9.40
2019-05-19T12:36:44.786Z,11.07
2019-05-19T12:39:14.884Z,10.30
2019-05-19T12:41:44.812Z,10.73
2019-05-19T12:44:14.708Z,11.40
2019-05-19T12:46:45.688Z,11.73
2019-05-19T12:49:15.671Z,10.63
2019-05-19T12:51:45.518Z,11.90
2019-05-19T12:54:15.532Z,12.00
2019-05-19T12:56:45.399Z,11.40
2019-05-19T12:59:16.297Z,11.37
2019-05-19T13:01:46.208Z,10.33
2019-05-19T13:04:16.085Z,12.37
2019-05-19T13:06:46.023Z,10.60
2019-05-19T13:09:17.411Z,10.63
2019-05-19T13:11:47.421Z,9.53
2019-05-19T13:14:17.411Z,10.90
2019-05-19T13:16:47.385Z,9.07
2019-05-19T13:19:17.526Z,9.80
2019-05-19T13:21:47.432Z,9.57
2019-05-19T13:24:17.416Z,9.70
2019-05-19T13:26:56.182Z,9.27
2019-05-19T13:29:19.207Z,8.73
2019-05-19T13:31:49.036Z,9.23
2019-05-19T13:34:18.876Z,7.33
2019-05-19T13:36:48.807Z,8.07
2019-05-19T13:39:18.775Z,7.33
2019-05-19T13:41:48.696Z,6.80
2019-05-19T13:44:18.696Z,7.57
2019-05-19T13:46:50.297Z,8.20
2019-05-19T13:49:20.469Z,8.90
2019-05-19T13:51:50.336Z,6.63
2019-05-19T13:54:20.219Z,6.93
2019-05-19T13:56:50.079Z,7.57
2019-05-19T13:59:19.985Z,7.97
2019-05-19T14:01:50.352Z,7.73
2019-05-19T14:04:20.247Z,10.17
2019-05-19T14:06:50.185Z,8.13
2019-05-19T14:09:20.405Z,8.87
2019-05-19T14:11:50.468Z,8.87
2019-05-19T14:14:20.766Z,7.43
2019-05-19T14:16:50.653Z,7.53
2019-05-19T14:19:21.176Z,7.73
2019-05-19T14:21:51.091Z,7.40
2019-05-19T14:24:20.993Z,6.37
2019-05-19T14:26:50.880Z,6.13
2019-05-19T14:29:20.823Z,6.40
2019-05-19T14:31:50.703Z,6.30
2019-05-19T14:34:20.632Z,6.17
2019-05-19T14:36:50.732Z,5.90
2019-05-19T14:39:20.668Z,5.07
2019-05-19T14:41:54.460Z,4.87
2019-05-19T14:44:24.330Z,4.50
2019-05-19T14:46:54.171Z,4.73
2019-05-19T14:49:24.055Z,4.80
2019-05-19T14:51:54.312Z,5.17
2019-05-19T14:54:24.148Z,4.80
2019-05-19T14:56:54.004Z,4.67
2019-05-19T14:59:23.859Z,5.10
2019-05-19T15:01:54.176Z,5.30
2019-05-19T15:04:24.035Z,4.33
2019-05-19T15:06:54.074Z,4.50
2019-05-19T15:09:23.932Z,4.53
2019-05-19T15:11:53.911Z,4.50
2019-05-19T15:14:23.751Z,5.43
2019-05-19T15:16:53.582Z,5.03
2019-05-19T15:19:23.441Z,4.70
2019-05-19T15:21:53.391Z,5.73
2019-05-19T15:24:23.233Z,5.03
2019-05-19T15:26:53.121Z,4.70
2019-05-19T15:29:22.997Z,5.37
2019-05-19T15:31:52.824Z,4.37
2019-05-19T15:34:22.682Z,4.70
2019-05-19T15:36:52.539Z,4.20
2019-05-19T15:39:22.379Z,4.33
2019-05-19T15:41:52.237Z,4.30
2019-05-19T15:44:22.227Z,4.33
2019-05-19T15:46:52.094Z,5.13
2019-05-19T15:49:21.943Z,5.43
2019-05-19T15:52:01.484Z,5.50
2019-05-19T15:54:23.423Z,5.77
2019-05-19T15:56:53.757Z,4.93
2019-05-19T15:59:23.619Z,5.73
2019-05-19T16:01:53.508Z,5.27
2019-05-19T16:04:23.343Z,5.00
2019-05-19T16:06:53.191Z,5.23
2019-05-19T16:09:23.043Z,6.83
2019-05-19T16:11:52.997Z,8.43
2019-05-19T16:14:23.805Z,9.40
2019-05-19T16:16:53.714Z,7.07
2019-05-19T16:19:23.513Z,8.07
2019-05-19T16:21:53.474Z,10.13
2019-05-19T16:24:23.349Z,9.37
2019-05-19T16:26:53.292Z,11.13
2019-05-19T16:29:23.180Z,17.77
2019-05-19T16:31:53.048Z,9.63
2019-05-19T16:34:22.896Z,12.13
2019-05-19T16:36:52.789Z,13.27
2019-05-19T16:39:22.663Z,11.77
2019-05-19T16:41:52.991Z,11.40
2019-05-19T16:44:22.955Z,10.83
2019-05-19T16:46:54.176Z,11.77
2019-05-19T16:49:24.036Z,11.20
2019-05-19T16:51:54.008Z,8.50
2019-05-19T16:54:28.683Z,7.40
2019-05-19T16:56:58.524Z,6.83
2019-05-19T16:59:28.397Z,6.63
2019-05-19T17:01:58.309Z,8.90
2019-05-19T17:04:28.156Z,8.43
2019-05-19T17:06:58.108Z,9.10
2019-05-19T17:09:27.961Z,10.00
2019-05-19T17:11:57.981Z,10.80
2019-05-19T17:14:27.851Z,10.80
2019-05-19T17:16:57.808Z,12.80
2019-05-19T17:19:27.703Z,16.50
2019-05-19T17:21:57.611Z,13.60
2019-05-19T17:24:27.588Z,12.03
2019-05-19T17:26:57.591Z,12.20
2019-05-19T17:29:27.652Z,12.20
2019-05-19T17:32:05.585Z,13.33
2019-05-19T17:34:29.101Z,12.67
2019-05-19T17:36:58.929Z,12.00
2019-05-19T17:39:28.806Z,16.63
2019-05-19T17:41:58.656Z,17.80
2019-05-19T17:44:28.515Z,14.73
2019-05-19T17:46:58.433Z,16.43
2019-05-19T17:49:28.259Z,15.33
2019-05-19T17:51:58.377Z,15.13
2019-05-19T17:54:28.516Z,17.23
2019-05-19T17:57:00.801Z,16.63
2019-05-19T17:59:30.790Z,16.50
2019-05-19T18:02:01.174Z,19.07
2019-05-19T18:04:31.131Z,17.93
2019-05-19T18:07:01.289Z,18.27
2019-05-19T18:09:31.168Z,19.03
2019-05-19T18:12:01.772Z,17.13
2019-05-19T18:14:31.833Z,19.07
2019-05-19T18:17:01.745Z,19.63
2019-05-19T18:19:31.644Z,19.60
2019-05-19T18:22:01.493Z,19.97
2019-05-19T18:24:31.367Z,18.83
2019-05-19T18:27:01.260Z,18.93
2019-05-19T18:29:31.852Z,20.27
2019-05-19T18:32:01.773Z,20.57
2019-05-19T18:34:31.641Z,22.77
2019-05-19T18:37:01.530Z,23.77
2019-05-19T18:39:31.449Z,23.33
2019-05-19T18:42:01.339Z,20.40
2019-05-19T18:44:31.402Z,21.43
2019-05-19T18:47:01.452Z,19.97
2019-05-19T18:49:31.311Z,20.23
2019-05-19T18:52:01.207Z,20.73
2019-05-19T18:54:31.068Z,21.70
2019-05-19T18:57:00.961Z,19.93
2019-05-19T18:59:30.793Z,20.33
2019-05-19T19:02:01.194Z,19.20
2019-05-19T19:04:31.149Z,19.90
2019-05-19T19:07:01.101Z,20.93
2019-05-19T19:09:31.471Z,21.40
2019-05-19T19:12:01.360Z,20.93
2019-05-19T19:14:31.511Z,22.10
2019-05-19T19:17:01.423Z,25.80
2019-05-19T19:19:31.308Z,23.90
2019-05-19T19:22:01.164Z,25.53
2019-05-19T19:24:31.012Z,27.70
2019-05-19T19:27:00.973Z,27.47
2019-05-19T19:29:30.831Z,34.60
2019-05-19T19:32:00.739Z,30.53
2019-05-19T19:34:30.624Z,27.93
2019-05-19T19:37:00.489Z,32.43
2019-05-19T19:39:30.353Z,30.90
2019-05-19T19:42:00.313Z,26.50
2019-05-19T19:44:30.171Z,25.87
2019-05-19T19:47:00.171Z,24.43
2019-05-19T19:49:30.371Z,22.40
2019-05-19T19:52:00.228Z,23.67
2019-05-19T19:54:30.404Z,23.23
2019-05-19T19:57:00.562Z,23.20
2019-05-19T19:59:31.764Z,24.80
2019-05-19T20:02:01.624Z,20.80
2019-05-19T20:04:31.475Z,26.03
2019-05-19T20:07:01.556Z,24.77
2019-05-19T20:09:31.816Z,27.37
2019-05-19T20:12:01.668Z,25.53
2019-05-19T20:14:31.606Z,24.80
2019-05-19T20:17:01.685Z,25.20
2019-05-19T20:19:31.557Z,24.53
2019-05-19T20:22:01.414Z,23.63
2019-05-19T20:24:31.268Z,26.33
2019-05-19T20:27:01.141Z,27.20
2019-05-19T20:29:30.992Z,18.27
2019-05-19T20:32:00.909Z,18.60
2019-05-19T20:34:30.785Z,20.27
2019-05-19T20:37:00.692Z,15.43
2019-05-19T20:39:30.550Z,9.40
2019-05-19T20:42:00.395Z,10.53
2019-05-19T20:44:30.234Z,9.50
2019-05-19T20:47:00.274Z,9.87
2019-05-19T20:49:30.155Z,9.80
2019-05-19T20:52:00.019Z,9.97
2019-05-19T20:54:29.876Z,12.53
2019-05-19T20:56:59.824Z,12.23
2019-05-19T20:59:29.700Z,14.07
2019-05-19T21:01:59.544Z,21.13
2019-05-19T21:04:29.412Z,13.73
2019-05-19T21:06:59.363Z,12.23
2019-05-19T21:09:29.220Z,13.27
2019-05-19T21:11:59.068Z,10.40
2019-05-19T21:14:29.149Z,11.23
2019-05-19T21:16:59.099Z,10.20
2019-05-19T21:19:28.931Z,9.30
2019-05-19T21:21:58.792Z,10.17
2019-05-19T21:24:28.643Z,9.93
2019-05-19T21:26:58.604Z,8.43
2019-05-19T21:29:28.433Z,9.80
2019-05-19T21:31:58.280Z,13.73
2019-05-19T21:34:28.195Z,11.80
2019-05-19T21:36:58.032Z,8.53
2019-05-19T21:39:29.003Z,8.67
2019-05-19T21:41:58.831Z,8.13
2019-05-19T21:44:28.675Z,8.50
2019-05-19T21:46:58.532Z,8.13
2019-05-19T21:49:28.399Z,9.70
2019-05-19T21:51:58.291Z,9.67
2019-05-19T21:54:28.195Z,7.60
2019-05-19T21:56:58.049Z,10.97
2019-05-19T21:59:27.881Z,7.50
2019-05-19T22:01:57.734Z,9.70
2019-05-19T22:04:27.579Z,8.50
2019-05-19T22:07:05.189Z,8.83
2019-05-19T22:09:35.060Z,8.87
2019-05-19T22:12:05.052Z,12.07
2019-05-19T22:14:34.989Z,8.47
2019-05-19T22:17:04.984Z,7.40
2019-05-19T22:19:34.928Z,8.07
2019-05-19T22:22:04.896Z,7.13
2019-05-19T22:24:34.751Z,6.73
2019-05-19T22:27:04.619Z,6.93
2019-05-19T22:29:34.477Z,10.10
2019-05-19T22:32:04.328Z,7.77
2019-05-19T22:34:34.160Z,9.97
2019-05-19T22:37:04.139Z,6.87
2019-05-19T22:39:33.993Z,8.07
2019-05-19T22:42:03.888Z,10.10
2019-05-19T22:44:33.816Z,8.40
2019-05-19T22:47:03.741Z,8.03
2019-05-19T22:49:34.387Z,12.43
2019-05-19T22:52:04.338Z,9.07
2019-05-19T22:54:34.192Z,8.90
2019-05-19T22:57:04.132Z,8.30
2019-05-19T22:59:33.966Z,11.37
2019-05-19T23:02:03.816Z,10.13
2019-05-19T23:04:33.661Z,9.93
2019-05-19T23:07:03.563Z,9.67
2019-05-19T23:09:33.420Z,8.87
2019-05-19T23:12:03.271Z,11.20
2019-05-19T23:14:33.116Z,10.77
2019-05-19T23:17:03.552Z,9.77
2019-05-19T23:19:33.524Z,11.40
2019-05-19T23:22:03.414Z,12.97
2019-05-19T23:24:33.280Z,11.80
2019-05-19T23:27:03.191Z,13.57
2019-05-19T23:29:33.056Z,11.67
2019-05-19T23:32:07.128Z,9.43
2019-05-19T23:34:34.389Z,10.43
2019-05-19T23:37:04.383Z,7.67
2019-05-19T23:39:34.215Z,8.10
2019-05-19T23:42:04.085Z,8.53
2019-05-19T23:44:33.944Z,9.33
2019-05-19T23:47:03.836Z,9.07
2019-05-19T23:49:33.796Z,9.50
2019-05-19T23:52:03.692Z,11.27
2019-05-19T23:54:33.559Z,10.10
2019-05-19T23:57:03.499Z,10.80
2019-05-19T23:59:33.352Z,8.63
